Time;durP1;ratioP1;P1;durP2;ratioP2;P2;SDS_P1;SDS_P2;PMS_P1;PMS_P2;Temp;Humidity;BMP_temperature;BMP_pressure;BME280_temperature;BME280_humidity;BME280_pressure;Samples;Min_cycle;Max_cycle;Signal;HPM_P1;HPM_P2
2021/07/13 00:00:15;;;;;;;58.40;2.70;;;20.30;1.00;;;;;;5072475;28;20443;-70
2021/07/13 00:02:42;;;;;;;58.07;2.43;;;20.30;1.00;;;;;;5071907;28;20456;-70
2021/07/13 00:05:13;;;;;;;57.87;2.80;;;20.30;1.00;;;;;;5072130;28;20972;-70
2021/07/13 00:07:40;;;;;;;59.27;3.43;;;20.30;1.00;;;;;;5072383;28;20440;-70
2021/07/13 00:10:10;;;;;;;57.97;2.77;;;20.30;1.00;;;;;;5072183;28;20539;-70
2021/07/13 00:12:38;;;;;;;58.90;2.60;;;20.20;1.00;;;;;;5072057;28;20531;-70
2021/07/13 00:15:08;;;;;;;58.27;2.40;;;20.10;1.00;;;;;;5071989;28;20507;-70
2021/07/13 00:17:35;;;;;;;58.60;2.60;;;20.10;1.00;;;;;;5072022;28;20480;-70
2021/07/13 00:20:03;;;;;;;58.67;2.40;;;20.00;1.00;;;;;;5072006;28;20551;-70
2021/07/13 00:22:29;;;;;;;58.67;2.47;;;19.90;1.00;;;;;;5071968;28;20447;-71
2021/07/13 00:24:56;;;;;;;58.70;3.07;;;19.90;1.00;;;;;;5071885;28;20550;-71
2021/07/13 00:27:25;;;;;;;58.60;2.67;;;19.80;1.00;;;;;;5071957;28;20475;-70
2021/07/13 00:29:51;;;;;;;58.40;2.60;;;19.80;1.00;;;;;;5071817;28;20444;-70
2021/07/13 00:32:18;;;;;;;58.40;2.83;;;19.80;1.00;;;;;;5071765;28;20454;-70
2021/07/13 00:34:45;;;;;;;58.80;3.20;;;19.70;1.00;;;;;;5071936;28;20562;-70
2021/07/13 00:37:12;;;;;;;57.90;2.60;;;19.70;1.00;;;;;;5071153;28;20450;-70
2021/07/13 00:39:39;;;;;;;58.40;2.80;;;19.70;1.00;;;;;;5071951;28;20449;-70
2021/07/13 00:42:13;;;;;;;58.40;2.40;;;19.70;1.00;;;;;;5071557;28;20539;-70
2021/07/13 00:44:41;;;;;;;58.50;2.73;;;19.70;1.00;;;;;;5071591;28;21042;-70
2021/07/13 00:47:09;;;;;;;58.23;2.60;;;19.70;1.00;;;;;;5071965;28;20446;-70
2021/07/13 00:49:36;;;;;;;58.80;3.20;;;19.70;1.00;;;;;;5071717;28;20939;-70
2021/07/13 00:52:04;;;;;;;58.03;2.50;;;19.70;1.00;;;;;;5071582;28;20451;-70
2021/07/13 00:54:31;;;;;;;58.10;2.70;;;19.60;1.00;;;;;;5071634;28;20463;-70
2021/07/13 00:56:58;;;;;;;57.93;2.53;;;19.60;1.00;;;;;;5071501;28;20450;-70
2021/07/13 00:59:25;;;;;;;58.50;2.73;;;19.50;1.00;;;;;;5071588;28;21015;-70
2021/07/13 01:01:53;;;;;;;59.13;3.00;;;19.50;1.00;;;;;;5071331;28;21006;-70
2021/07/13 01:04:20;;;;;;;58.77;3.10;;;19.40;1.00;;;;;;5071280;28;20558;-70
2021/07/13 01:06:59;;;;;;;57.87;2.50;;;19.40;1.00;;;;;;5071622;28;20479;-70
2021/07/13 01:09:38;;;;;;;57.93;2.50;;;19.40;1.00;;;;;;5071421;28;20447;-71
2021/07/13 01:12:14;;;;;;;58.50;3.20;;;19.30;1.00;;;;;;5071582;28;20456;-70
2021/07/13 01:14:48;;;;;;;58.57;2.83;;;19.30;1.00;;;;;;5071583;28;20549;-70
2021/07/13 01:17:21;;;;;;;58.20;2.50;;;19.30;1.00;;;;;;5071485;28;20538;-70
2021/07/13 01:20:16;;;;;;;59.87;4.97;;;19.30;1.00;;;;;;5071427;28;20529;-70
2021/07/13 01:22:46;;;;;;;58.17;2.40;;;19.30;1.00;;;;;;5071306;28;20451;-71
2021/07/13 01:25:27;;;;;;;58.30;2.50;;;19.20;1.00;;;;;;5071474;28;20468;-70
2021/07/13 01:28:10;;;;;;;58.50;2.63;;;19.20;1.00;;;;;;5071628;28;20856;-70
2021/07/13 01:30:41;;;;;;;58.80;2.77;;;19.20;1.00;;;;;;5071797;28;20522;-71
2021/07/13 01:33:13;;;;;;;58.17;2.60;;;19.20;1.00;;;;;;5071349;28;20487;-71
2021/07/13 01:35:44;;;;;;;58.07;2.50;;;19.20;1.00;;;;;;5071283;28;20456;-71
2021/07/13 01:38:13;;;;;;;58.20;2.50;;;19.20;1.00;;;;;;5071597;28;20562;-71
2021/07/13 01:40:43;;;;;;;58.10;2.60;;;19.20;1.00;;;;;;5071218;28;20538;-71
2021/07/13 01:43:12;;;;;;;58.50;2.60;;;19.20;1.00;;;;;;5071193;28;20450;-71
2021/07/13 01:45:41;;;;;;;57.87;2.40;;;19.20;1.00;;;;;;5071353;28;20463;-71
2021/07/13 01:48:10;;;;;;;59.57;3.27;;;19.20;1.00;;;;;;5071089;28;20445;-71
2021/07/13 01:50:38;;;;;;;58.17;2.50;;;19.20;1.00;;;;;;5074675;28;20447;-71
2021/07/13 01:53:06;;;;;;;58.07;2.47;;;19.20;1.00;;;;;;5074547;28;20449;-71
2021/07/13 01:55:34;;;;;;;58.60;2.80;;;19.20;1.00;;;;;;5074877;28;20463;-71
2021/07/13 01:58:01;;;;;;;59.10;3.50;;;19.10;1.00;;;;;;5074804;28;20482;-71
2021/07/13 02:00:31;;;;;;;58.50;2.67;;;19.10;1.00;;;;;;5074733;28;20547;-71
2021/07/13 02:02:59;;;;;;;58.37;2.60;;;19.10;1.00;;;;;;5074422;28;20541;-71
2021/07/13 02:05:28;;;;;;;58.30;2.70;;;19.10;1.00;;;;;;5074444;28;20469;-72
2021/07/13 02:08:01;;;;;;;58.37;2.63;;;19.00;1.00;;;;;;5074425;28;20935;-72
2021/07/13 02:10:29;;;;;;;58.70;3.57;;;19.00;1.00;;;;;;5074638;28;20457;-73
2021/07/13 02:12:56;;;;;;;57.90;2.67;;;18.90;1.00;;;;;;5074255;28;20446;-73
2021/07/13 02:15:22;;;;;;;58.43;3.10;;;18.90;1.00;;;;;;5074279;28;20470;-72
2021/07/13 02:17:52;;;;;;;58.57;2.70;;;18.90;1.00;;;;;;5074242;28;20527;-73
2021/07/13 02:20:21;;;;;;;58.50;3.03;;;18.90;1.00;;;;;;5074213;28;20935;-72
2021/07/13 02:22:48;;;;;;;58.50;2.90;;;18.80;1.00;;;;;;5074046;28;20543;-73
2021/07/13 02:25:15;;;;;;;57.97;2.70;;;18.80;1.00;;;;;;5074092;28;20997;-72
2021/07/13 02:27:46;;;;;;;58.33;2.80;;;18.80;1.00;;;;;;5074219;28;20447;-74
2021/07/13 02:30:14;;;;;;;58.17;2.77;;;18.70;3.90;;;;;;5074255;28;20450;-71
2021/07/13 02:32:46;;;;;;;58.70;2.90;;;18.70;8.10;;;;;;5073669;28;20443;-71
2021/07/13 02:35:15;;;;;;;58.17;2.53;;;18.60;14.90;;;;;;5074224;28;20490;-72
2021/07/13 02:37:46;;;;;;;58.80;2.70;;;18.60;22.20;;;;;;5074131;28;20455;-72
2021/07/13 02:40:15;;;;;;;58.70;3.50;;;18.50;26.70;;;;;;5074082;28;20471;-69
2021/07/13 02:42:45;;;;;;;60.13;4.70;;;18.40;32.00;;;;;;5073656;28;20875;-72
2021/07/13 02:45:13;;;;;;;58.50;2.77;;;18.30;38.40;;;;;;5073713;28;20520;-72
2021/07/13 02:47:43;;;;;;;58.20;2.90;;;18.20;47.50;;;;;;5073716;28;20478;-72
2021/07/13 02:50:10;;;;;;;58.17;2.83;;;18.10;52.60;;;;;;5073712;28;20453;-71
2021/07/13 02:52:39;;;;;;;58.20;2.60;;;18.00;57.40;;;;;;5073670;28;20533;-69
2021/07/13 02:55:10;;;;;;;57.97;2.70;;;17.90;61.70;;;;;;5073554;28;21045;-69
2021/07/13 02:57:39;;;;;;;58.50;2.70;;;17.90;64.70;;;;;;5073650;28;20456;-70
2021/07/13 03:00:08;;;;;;;57.97;2.50;;;17.80;66.10;;;;;;5072844;28;20501;-69
2021/07/13 03:02:36;;;;;;;57.90;2.53;;;17.80;68.90;;;;;;5072976;28;20446;-70
2021/07/13 03:05:03;;;;;;;58.20;2.60;;;17.70;70.10;;;;;;5073495;28;20470;-70
2021/07/13 03:07:30;;;;;;;58.13;2.50;;;17.70;71.40;;;;;;5073464;28;20453;-69
2021/07/13 03:09:59;;;;;;;58.40;2.63;;;17.70;73.80;;;;;;5073383;28;20537;-69
2021/07/13 03:12:27;;;;;;;57.87;2.50;;;17.70;75.70;;;;;;5072943;28;20497;-72
2021/07/13 03:14:55;;;;;;;58.33;2.53;;;17.60;77.80;;;;;;5073117;28;20557;-72
2021/07/13 03:17:22;;;;;;;58.20;2.60;;;17.60;79.60;;;;;;5073157;28;20451;-72
2021/07/13 03:19:49;;;;;;;58.30;2.60;;;17.60;81.50;;;;;;5073168;28;20496;-72
2021/07/13 03:22:19;;;;;;;58.03;2.70;;;17.60;83.60;;;;;;5072747;28;20537;-71
2021/07/13 03:24:48;;;;;;;58.17;2.57;;;17.60;86.30;;;;;;5072898;28;20502;-72
2021/07/13 03:27:19;;;;;;;58.27;2.80;;;17.60;88.90;;;;;;5073170;28;20446;-71
2021/07/13 03:29:48;;;;;;;58.40;2.60;;;17.70;90.50;;;;;;5073085;28;20455;-71
2021/07/13 03:32:17;;;;;;;58.10;2.57;;;17.70;91.60;;;;;;5072699;28;20461;-71
2021/07/13 03:34:45;;;;;;;58.00;2.80;;;17.60;92.10;;;;;;5072870;28;20556;-72
2021/07/13 03:37:12;;;;;;;58.17;2.47;;;17.60;92.60;;;;;;5072860;28;20461;-71
2021/07/13 03:39:39;;;;;;;58.23;2.77;;;17.60;93.60;;;;;;5072579;28;20573;-71
2021/07/13 03:42:06;;;;;;;58.03;2.67;;;17.60;94.30;;;;;;5072633;28;20562;-71
2021/07/13 03:44:35;;;;;;;57.97;2.57;;;17.60;95.30;;;;;;5072727;28;20562;-72
2021/07/13 03:47:02;;;;;;;57.93;2.67;;;17.60;96.40;;;;;;5072640;28;20446;-72
2021/07/13 03:49:30;;;;;;;57.90;2.63;;;17.60;97.60;;;;;;5072626;28;20468;-71
2021/07/13 03:51:57;;;;;;;58.07;2.60;;;17.60;98.70;;;;;;5072171;28;21034;-71
2021/07/13 03:54:24;;;;;;;58.40;3.13;;;17.60;99.30;;;;;;5072633;28;20473;-70
2021/07/13 03:56:52;;;;;;;58.03;2.60;;;17.60;99.90;;;;;;5072590;28;20446;-69
2021/07/13 03:59:19;;;;;;;58.17;2.70;;;17.60;99.90;;;;;;5072350;28;21088;-69
2021/07/13 04:01:47;;;;;;;58.07;2.50;;;17.60;99.90;;;;;;5072064;28;20452;-70
2021/07/13 04:04:14;;;;;;;58.20;2.50;;;17.60;99.90;;;;;;5072147;28;20479;-69
2021/07/13 04:06:41;;;;;;;58.40;2.57;;;17.60;99.90;;;;;;5072151;28;20446;-71
2021/07/13 04:09:09;;;;;;;58.47;2.87;;;17.60;99.90;;;;;;5072257;28;20910;-71
2021/07/13 04:11:36;;;;;;;57.87;2.50;;;17.50;99.90;;;;;;5071892;28;20538;-71
2021/07/13 04:14:05;;;;;;;58.37;2.70;;;17.50;99.90;;;;;;5072163;28;20480;-71
2021/07/13 04:16:33;;;;;;;58.40;2.60;;;17.50;99.90;;;;;;5072048;28;20549;-72
2021/07/13 04:19:01;;;;;;;58.07;2.70;;;17.50;99.90;;;;;;5071937;28;20483;-71
2021/07/13 04:21:28;;;;;;;58.27;2.50;;;17.50;99.90;;;;;;5071999;28;20541;-71
2021/07/13 04:23:55;;;;;;;57.93;2.50;;;17.50;99.90;;;;;;5072110;28;20545;-71
2021/07/13 04:26:23;;;;;;;57.97;2.70;;;17.50;99.90;;;;;;5072115;28;20452;-71
2021/07/13 04:28:50;;;;;;;58.37;2.70;;;17.50;99.90;;;;;;5071922;28;20522;-71
2021/07/13 04:31:17;;;;;;;58.17;2.80;;;17.50;99.90;;;;;;5071808;28;20941;-71
2021/07/13 04:33:43;;;;;;;58.07;2.70;;;17.60;99.90;;;;;;5071547;28;20564;-69
2021/07/13 04:36:12;;;;;;;58.10;2.87;;;17.60;99.90;;;;;;5071820;28;20489;-71
2021/07/13 04:38:41;;;;;;;58.27;2.57;;;17.60;99.90;;;;;;5071974;28;20450;-71
2021/07/13 04:41:08;;;;;;;58.23;2.60;;;17.60;99.90;;;;;;5071617;28;20887;-71
2021/07/13 04:43:34;;;;;;;57.97;2.50;;;17.70;99.90;;;;;;5071448;28;21994;-71
2021/07/13 04:46:01;;;;;;;57.97;2.50;;;17.70;99.90;;;;;;5071756;28;20880;-71
2021/07/13 04:48:28;;;;;;;58.17;2.80;;;17.70;99.90;;;;;;5071666;28;20447;-71
2021/07/13 04:50:55;;;;;;;58.17;2.53;;;17.80;99.90;;;;;;5071635;28;20455;-71
2021/07/13 04:53:23;;;;;;;57.97;2.70;;;17.80;99.90;;;;;;5071576;28;20556;-71
2021/07/13 04:55:50;;;;;;;58.00;2.80;;;17.90;99.90;;;;;;5071601;28;20453;-71
2021/07/13 04:58:17;;;;;;;58.20;2.53;;;17.90;99.90;;;;;;5071585;28;20988;-71
2021/07/13 05:00:44;;;;;;;57.73;2.60;;;17.90;99.90;;;;;;5071478;28;20577;-71
2021/07/13 05:03:10;;;;;;;57.93;2.60;;;17.90;99.90;;;;;;5071494;28;20837;-71
2021/07/13 05:05:37;;;;;;;57.77;2.40;;;18.00;99.90;;;;;;5071687;28;20466;-71
2021/07/13 05:08:05;;;;;;;57.83;2.50;;;18.00;99.90;;;;;;5071677;28;20451;-71
2021/07/13 05:10:33;;;;;;;58.07;2.40;;;18.00;99.90;;;;;;5071637;28;20831;-71
2021/07/13 05:13:00;;;;;;;57.77;2.53;;;18.10;99.90;;;;;;5071130;28;21011;-72
2021/07/13 05:15:27;;;;;;;58.03;2.60;;;18.10;99.90;;;;;;5071290;28;21008;-71
2021/07/13 05:17:53;;;;;;;57.87;2.50;;;18.20;99.90;;;;;;5071632;28;20533;-71
2021/07/13 05:20:20;;;;;;;57.87;2.50;;;18.30;99.90;;;;;;5071331;28;21081;-71
2021/07/13 05:22:48;;;;;;;58.07;2.83;;;18.30;99.90;;;;;;5071057;28;20482;-70
2021/07/13 05:25:16;;;;;;;57.97;2.60;;;18.40;99.90;;;;;;5074431;28;20466;-71
2021/07/13 05:27:44;;;;;;;58.30;2.70;;;18.50;99.90;;;;;;5075086;28;20507;-71
2021/07/13 05:30:12;;;;;;;57.93;2.57;;;18.60;99.90;;;;;;5075516;28;20529;-71
2021/07/13 05:32:40;;;;;;;58.20;2.60;;;18.70;99.90;;;;;;5075106;28;20875;-71
2021/07/13 05:35:08;;;;;;;58.07;2.97;;;18.80;99.90;;;;;;5075240;28;20550;-71
2021/07/13 05:37:35;;;;;;;58.13;2.77;;;18.90;99.90;;;;;;5074947;28;20551;-71
2021/07/13 05:40:04;;;;;;;58.27;2.60;;;18.90;99.90;;;;;;5073914;28;20569;-71
2021/07/13 05:42:31;;;;;;;61.07;3.27;;;19.00;99.90;;;;;;5074399;28;20948;-71
2021/07/13 05:45:00;;;;;;;58.00;2.27;;;19.10;99.00;;;;;;5075059;28;20473;-71
2021/07/13 05:47:27;;;;;;;58.10;2.40;;;19.10;98.00;;;;;;5075005;28;20545;-71
2021/07/13 05:49:54;;;;;;;57.77;2.40;;;19.10;96.90;;;;;;5074823;28;20489;-71
2021/07/13 05:52:21;;;;;;;57.60;2.37;;;19.10;96.50;;;;;;5074521;28;20470;-72
2021/07/13 05:54:48;;;;;;;58.20;3.20;;;19.00;95.80;;;;;;5074588;28;20466;-71
2021/07/13 05:57:15;;;;;;;58.30;2.90;;;19.00;95.20;;;;;;5074707;28;20451;-71
2021/07/13 05:59:41;;;;;;;57.93;2.90;;;19.00;94.60;;;;;;5074929;28;20475;-72
2021/07/13 06:02:10;;;;;;;57.80;2.50;;;19.00;94.10;;;;;;5074466;28;20447;-71
2021/07/13 06:04:36;;;;;;;57.87;2.50;;;19.00;93.60;;;;;;5074411;28;20479;-71
2021/07/13 06:07:04;;;;;;;58.17;2.60;;;18.90;93.60;;;;;;5074597;28;20449;-72
2021/07/13 06:09:31;;;;;;;57.73;2.70;;;18.90;93.70;;;;;;5074447;28;20446;-71
2021/07/13 06:11:59;;;;;;;57.93;2.60;;;18.80;93.50;;;;;;5074308;28;20450;-72
2021/07/13 06:14:26;;;;;;;58.13;2.60;;;18.80;93.70;;;;;;5074282;28;21010;-72
2021/07/13 06:16:53;;;;;;;58.07;2.77;;;18.70;93.30;;;;;;5074490;28;20471;-71
2021/07/13 06:19:22;;;;;;;58.27;3.13;;;18.70;93.50;;;;;;5074332;28;20477;-71
2021/07/13 06:21:48;;;;;;;57.60;2.40;;;18.60;94.20;;;;;;5073969;28;20538;-72
2021/07/13 06:24:15;;;;;;;59.10;3.40;;;18.50;94.60;;;;;;5073987;28;20475;-71
2021/07/13 06:26:42;;;;;;;58.27;2.70;;;18.50;94.50;;;;;;5074113;28;20454;-71
2021/07/13 06:29:09;;;;;;;57.77;2.60;;;18.50;94.00;;;;;;5074303;28;20489;-71
2021/07/13 06:31:36;;;;;;;58.10;2.50;;;18.40;94.00;;;;;;5074323;28;20509;-71
2021/07/13 06:34:03;;;;;;;58.40;3.30;;;18.40;93.40;;;;;;5073933;28;21006;-71
2021/07/13 06:36:31;;;;;;;58.40;3.10;;;18.50;93.60;;;;;;5073920;28;20449;-71
2021/07/13 06:38:58;;;;;;;58.10;2.63;;;18.60;93.70;;;;;;5073948;28;20546;-71
2021/07/13 06:41:25;;;;;;;57.87;2.40;;;18.70;94.00;;;;;;5073721;28;20916;-72
2021/07/13 06:43:52;;;;;;;58.23;2.70;;;18.90;93.90;;;;;;5073838;28;20546;-72
2021/07/13 06:46:19;;;;;;;58.10;2.70;;;19.10;94.10;;;;;;5073905;28;20450;-72
2021/07/13 06:48:45;;;;;;;57.87;2.43;;;19.20;94.40;;;;;;5073851;28;20453;-72
2021/07/13 06:51:12;;;;;;;57.57;2.50;;;19.30;93.90;;;;;;5074069;28;20534;-71
2021/07/13 06:53:40;;;;;;;58.00;2.90;;;19.40;93.50;;;;;;5073488;28;20498;-72
2021/07/13 06:56:07;;;;;;;57.67;2.50;;;19.40;92.40;;;;;;5073682;28;20455;-72
2021/07/13 06:58:34;;;;;;;58.53;3.30;;;19.30;92.00;;;;;;5073733;28;20451;-72
2021/07/13 07:01:01;;;;;;;57.67;2.40;;;19.30;91.70;;;;;;5073485;28;20478;-72
2021/07/13 07:03:28;;;;;;;57.57;2.40;;;19.30;91.20;;;;;;5073124;28;20814;-72
2021/07/13 07:05:55;;;;;;;58.07;2.60;;;19.30;85.70;;;;;;5073456;28;20533;-71
2021/07/13 07:08:21;;;;;;;57.73;2.60;;;19.20;77.20;;;;;;5073375;28;20539;-72
2021/07/13 07:10:50;;;;;;;58.10;2.60;;;19.10;76.90;;;;;;5073633;28;20439;-72
2021/07/13 07:13:17;;;;;;;58.30;2.93;;;19.10;76.90;;;;;;5073055;28;20539;-71
2021/07/13 07:15:43;;;;;;;58.00;2.80;;;19.00;78.00;;;;;;5073358;28;20534;-72
2021/07/13 07:18:10;;;;;;;58.17;2.60;;;19.00;79.00;;;;;;5073156;28;20470;-72
2021/07/13 07:20:37;;;;;;;58.03;2.50;;;18.90;80.40;;;;;;5073072;28;21022;-72
2021/07/13 07:23:04;;;;;;;58.47;2.97;;;18.90;82.90;;;;;;5073253;28;20450;-72
2021/07/13 07:25:31;;;;;;;58.20;2.83;;;18.80;86.90;;;;;;5073160;28;20656;-72
2021/07/13 07:28:01;;;;;;;58.60;3.47;;;18.70;89.90;;;;;;5073105;28;20486;-72
2021/07/13 07:30:28;;;;;;;57.97;2.50;;;18.70;91.00;;;;;;5072847;28;21027;-72
2021/07/13 07:32:56;;;;;;;57.90;2.60;;;18.60;90.80;;;;;;5073107;28;20808;-72
2021/07/13 07:35:24;;;;;;;57.93;2.90;;;18.50;90.70;;;;;;5072760;28;20997;-72
2021/07/13 07:37:50;;;;;;;57.93;2.60;;;18.50;91.00;;;;;;5073026;28;20455;-72
2021/07/13 07:40:20;;;;;;;58.30;3.03;;;18.40;91.20;;;;;;5072745;28;20482;-72
2021/07/13 07:42:48;;;;;;;58.17;2.80;;;18.40;91.90;;;;;;5072420;28;20939;-72
2021/07/13 07:45:17;;;;;;;58.03;2.60;;;18.40;92.50;;;;;;5072582;28;20546;-72
2021/07/13 07:47:44;;;;;;;58.20;2.90;;;18.40;93.20;;;;;;5072291;28;20530;-72
2021/07/13 07:50:13;;;;;;;58.37;2.90;;;18.40;94.00;;;;;;5072775;28;20542;-72
2021/07/13 07:52:39;;;;;;;58.07;2.53;;;18.40;94.60;;;;;;5072354;28;20879;-72
2021/07/13 07:55:09;;;;;;;58.07;2.60;;;18.40;95.30;;;;;;5072445;28;20826;-72
2021/07/13 07:57:37;;;;;;;58.17;2.60;;;18.40;96.10;;;;;;5072508;28;20447;-72
2021/07/13 08:00:06;;;;;;;58.27;3.07;;;18.40;96.90;;;;;;5072286;28;20474;-72
2021/07/13 08:02:35;;;;;;;58.30;2.80;;;18.40;97.80;;;;;;5072160;28;20450;-72
2021/07/13 08:05:02;;;;;;;58.30;2.70;;;18.40;98.20;;;;;;5072240;28;21049;-72
2021/07/13 08:07:29;;;;;;;58.10;2.57;;;18.40;98.60;;;;;;5072410;28;20538;-72
2021/07/13 08:09:56;;;;;;;57.97;2.40;;;18.40;98.70;;;;;;5072225;28;20447;-72
2021/07/13 08:12:23;;;;;;;57.97;3.00;;;18.40;98.90;;;;;;5071774;28;20935;-73
2021/07/13 08:14:49;;;;;;;57.97;2.43;;;18.40;98.80;;;;;;5071981;28;20480;-73
2021/07/13 08:17:16;;;;;;;57.57;2.70;;;18.40;99.20;;;;;;5072502;28;20463;-73
2021/07/13 08:19:44;;;;;;;57.77;2.63;;;18.50;99.60;;;;;;5072118;28;20876;-73
2021/07/13 08:22:12;;;;;;;57.57;2.50;;;18.50;99.20;;;;;;5071736;28;21096;-73
2021/07/13 08:24:39;;;;;;;59.13;3.00;;;18.50;98.50;;;;;;5071899;28;20467;-73
2021/07/13 08:27:08;;;;;;;57.87;2.40;;;18.70;98.70;;;;;;5071849;28;20950;-72
2021/07/13 08:29:36;;;;;;;57.63;2.37;;;18.80;99.30;;;;;;5071914;28;20535;-72
2021/07/13 08:32:03;;;;;;;58.17;2.70;;;19.00;99.90;;;;;;5071834;28;20941;-72
2021/07/13 08:34:30;;;;;;;58.00;2.80;;;19.10;99.90;;;;;;5071899;28;20883;-72
2021/07/13 08:36:59;;;;;;;58.00;2.57;;;19.30;99.90;;;;;;5071890;28;20538;-72
2021/07/13 08:39:26;;;;;;;57.77;2.60;;;19.40;99.80;;;;;;5071699;28;20447;-71
2021/07/13 08:41:53;;;;;;;58.10;2.60;;;19.40;98.80;;;;;;5071454;28;20573;-71
2021/07/13 08:44:20;;;;;;;58.07;2.50;;;19.30;97.90;;;;;;5071860;28;20495;-71
2021/07/13 08:46:47;;;;;;;57.80;2.40;;;19.20;97.40;;;;;;5071818;28;20447;-72
2021/07/13 08:49:15;;;;;;;58.17;3.07;;;19.20;97.10;;;;;;5071749;28;20947;-72
2021/07/13 08:51:42;;;;;;;57.60;2.33;;;19.10;95.70;;;;;;5071461;28;20485;-72
2021/07/13 08:54:11;;;;;;;58.00;2.50;;;19.10;94.60;;;;;;5071506;28;20463;-72
2021/07/13 08:56:38;;;;;;;57.43;2.30;;;19.10;94.10;;;;;;5071657;28;20538;-73
2021/07/13 08:59:06;;;;;;;57.90;2.67;;;19.00;94.10;;;;;;5073013;28;20455;-72
2021/07/13 09:01:34;;;;;;;57.83;2.27;;;19.00;94.20;;;;;;5075565;28;20570;-72
2021/07/13 09:04:04;;;;;;;57.73;2.70;;;19.00;94.40;;;;;;5075618;28;20485;-72
2021/07/13 09:06:50;;;;;;;58.10;2.73;;;19.00;94.60;;;;;;5075683;28;20504;-72
2021/07/13 09:09:29;;;;;;;58.10;2.90;;;19.00;94.80;;;;;;5075888;28;20457;-72
2021/07/13 09:12:14;;;;;;;57.77;2.43;;;19.00;94.50;;;;;;5075408;28;20445;-72
2021/07/13 09:14:49;;;;;;;58.00;2.50;;;18.90;93.80;;;;;;5075634;28;20463;-72
2021/07/13 09:17:30;;;;;;;58.20;2.70;;;18.90;92.80;;;;;;5075774;28;20450;-72
2021/07/13 09:20:23;;;;;;;57.67;2.60;;;18.70;91.00;;;;;;5075401;28;20977;-72
2021/07/13 09:22:55;;;;;;;57.67;2.40;;;18.60;87.30;;;;;;5072355;28;20504;-72
2021/07/13 09:25:29;;;;;;;58.07;2.50;;;18.50;82.70;;;;;;5075750;28;20543;-73
2021/07/13 09:28:20;;;;;;;57.97;2.70;;;18.40;80.50;;;;;;5075592;28;20818;-72
2021/07/13 09:30:49;;;;;;;58.30;2.67;;;18.30;73.90;;;;;;5060230;28;20473;-72
2021/07/13 09:33:23;;;;;;;58.20;2.50;;;18.10;71.20;;;;;;5074902;28;20825;-72
2021/07/13 09:36:01;;;;;;;58.03;2.67;;;18.00;71.40;;;;;;5075058;28;20446;-73
2021/07/13 09:38:29;;;;;;;57.77;2.50;;;17.90;72.30;;;;;;5075245;28;20882;-73
2021/07/13 09:41:14;;;;;;;57.87;2.50;;;17.90;71.40;;;;;;5075043;28;20893;-72
2021/07/13 09:43:47;;;;;;;58.07;2.50;;;17.70;71.10;;;;;;5073468;28;20920;-72
2021/07/13 09:46:35;;;;;;;58.07;2.63;;;17.60;71.90;;;;;;5074868;28;20820;-72
2021/07/13 09:49:17;;;;;;;58.20;2.60;;;17.60;71.30;;;;;;5075096;28;20548;-71
2021/07/13 09:51:46;;;;;;;58.03;2.60;;;17.50;70.70;;;;;;5074556;28;20473;-72
2021/07/13 09:54:37;;;;;;;58.20;2.50;;;17.40;67.60;;;;;;5074818;28;20546;-71
2021/07/13 09:57:08;;;;;;;58.17;2.77;;;17.20;68.00;;;;;;5074975;28;20445;-72
2021/07/13 09:59:35;;;;;;;58.47;2.73;;;17.10;69.40;;;;;;5074872;28;20811;-70
2021/07/13 10:02:04;;;;;;;58.17;2.63;;;17.00;70.70;;;;;;5074393;28;20605;-70
2021/07/13 10:04:32;;;;;;;58.27;2.70;;;16.80;70.70;;;;;;5074507;28;20828;-70
2021/07/13 10:07:03;;;;;;;58.07;2.57;;;16.80;72.40;;;;;;5074448;28;20467;-72
2021/07/13 10:09:36;;;;;;;58.30;2.50;;;16.70;73.00;;;;;;5074360;28;20455;-75
2021/07/13 10:12:09;;;;;;;58.10;2.60;;;16.60;75.80;;;;;;5074452;28;20444;-74
2021/07/13 10:14:38;;;;;;;58.27;2.50;;;16.50;78.60;;;;;;5074354;28;20481;-75
2021/07/13 10:17:06;;;;;;;58.00;2.60;;;16.50;81.10;;;;;;5074516;28;20457;-74
2021/07/13 10:19:35;;;;;;;58.27;2.70;;;16.60;81.60;;;;;;5074239;28;20454;-72
2021/07/13 10:22:05;;;;;;;58.27;2.47;;;16.70;83.60;;;;;;5074104;28;20486;-72
2021/07/13 10:24:33;;;;;;;58.30;2.60;;;16.80;90.40;;;;;;5074342;28;20564;-71
2021/07/13 10:27:00;;;;;;;58.10;2.60;;;17.10;93.30;;;;;;5074411;28;20507;-72
2021/07/13 10:29:38;;;;;;;57.97;2.50;;;17.30;94.80;;;;;;5074233;28;20459;-73
2021/07/13 10:32:07;;;;;;;57.87;2.50;;;17.40;93.80;;;;;;5073758;28;20548;-73
2021/07/13 10:34:50;;;;;;;58.10;2.50;;;17.40;92.20;;;;;;5074194;28;20554;-72
2021/07/13 10:37:30;;;;;;;58.00;2.57;;;17.40;90.80;;;;;;5073967;28;20507;-74
2021/07/13 10:39:59;;;;;;;58.17;2.70;;;17.30;86.50;;;;;;5074073;28;20835;-73
2021/07/13 10:42:49;;;;;;;58.10;2.40;;;17.30;83.80;;;;;;5073473;28;20573;-74
2021/07/13 10:45:27;;;;;;;58.07;2.60;;;17.20;84.00;;;;;;5073997;28;20475;-73
2021/07/13 10:48:03;;;;;;;58.07;2.40;;;17.10;84.80;;;;;;5073907;28;20457;-73
2021/07/13 10:50:41;;;;;;;58.50;2.97;;;17.00;84.90;;;;;;5073799;28;20537;-74
2021/07/13 10:53:15;;;;;;;58.27;2.80;;;16.90;84.00;;;;;;5073714;28;20460;-73
2021/07/13 10:55:51;;;;;;;58.13;2.60;;;16.70;84.30;;;;;;5074093;28;20489;-73
2021/07/13 10:58:37;;;;;;;58.30;2.50;;;16.60;86.60;;;;;;5073781;28;20461;-73
2021/07/13 11:01:07;;;;;;;58.07;2.50;;;16.50;89.30;;;;;;5073392;28;20486;-73
2021/07/13 11:03:57;;;;;;;58.27;2.57;;;16.40;90.60;;;;;;5073356;28;20464;-73
2021/07/13 11:06:55;;;;;;;58.27;2.60;;;16.40;91.40;;;;;;5073634;28;20823;-74
2021/07/13 11:09:28;;;;;;;58.30;2.57;;;16.30;91.80;;;;;;5039237;28;20450;-73
2021/07/13 11:12:10;;;;;;;58.33;2.70;;;16.30;92.20;;;;;;5073107;28;20442;-73
2021/07/13 11:14:56;;;;;;;58.20;2.60;;;16.40;93.00;;;;;;5073431;28;20463;-73
2021/07/13 11:17:29;;;;;;;57.97;2.70;;;16.70;95.70;;;;;;5072909;28;20466;-73
2021/07/13 11:20:02;;;;;;;57.97;2.80;;;17.10;99.90;;;;;;5073099;28;20458;-73
2021/07/13 11:22:29;;;;;;;58.13;2.63;;;17.40;99.90;;;;;;5072147;28;20482;-73
2021/07/13 11:24:56;;;;;;;57.83;2.57;;;17.60;99.90;;;;;;5073150;28;20512;-73
2021/07/13 11:27:22;;;;;;;57.40;2.50;;;17.60;96.70;;;;;;5073205;28;20503;-73
2021/07/13 11:29:54;;;;;;;58.07;2.50;;;17.40;90.90;;;;;;5072983;28;20457;-73
2021/07/13 11:32:22;;;;;;;58.03;2.40;;;17.20;84.80;;;;;;5072689;28;20469;-73
2021/07/13 11:34:50;;;;;;;57.87;2.50;;;17.00;72.90;;;;;;5073116;28;20497;-73
2021/07/13 11:37:18;;;;;;;58.13;2.47;;;16.80;72.20;;;;;;5073205;28;20450;-74
2021/07/13 11:39:46;;;;;;;58.07;2.50;;;16.70;72.60;;;;;;5069539;28;20458;-74
2021/07/13 11:42:15;;;;;;;57.97;2.40;;;16.70;71.70;;;;;;5072458;28;20486;-74
2021/07/13 11:44:43;;;;;;;58.30;2.70;;;16.60;65.90;;;;;;5073052;28;20509;-74
2021/07/13 11:47:12;;;;;;;58.10;2.50;;;16.50;67.60;;;;;;5072568;28;20457;-74
2021/07/13 11:49:39;;;;;;;58.27;2.73;;;16.60;68.90;;;;;;5072975;28;20450;-74
2021/07/13 11:52:09;;;;;;;58.07;2.70;;;16.50;68.20;;;;;;5072719;28;20520;-74
2021/07/13 11:54:38;;;;;;;58.20;2.60;;;16.50;66.90;;;;;;5072719;28;20907;-74
2021/07/13 11:57:06;;;;;;;58.10;2.50;;;16.60;67.30;;;;;;5072783;28;20537;-74
2021/07/13 11:59:34;;;;;;;57.97;2.43;;;16.70;71.00;;;;;;5072313;28;20461;-73
2021/07/13 12:02:04;;;;;;;58.03;2.50;;;16.80;72.90;;;;;;5072052;28;20522;-73
2021/07/13 12:04:36;;;;;;;58.07;2.50;;;16.90;73.10;;;;;;5071990;28;20496;-74
2021/07/13 12:07:03;;;;;;;57.97;2.43;;;17.00;75.10;;;;;;5072655;28;20530;-73
2021/07/13 12:09:33;;;;;;;58.00;2.50;;;17.10;80.00;;;;;;5072401;28;20534;-73
2021/07/13 12:12:05;;;;;;;57.97;2.40;;;17.30;73.70;;;;;;5072315;28;20876;-73
2021/07/13 12:14:34;;;;;;;57.67;2.60;;;17.30;71.30;;;;;;5072300;28;20475;-73
2021/07/13 12:17:01;;;;;;;58.10;2.30;;;17.40;70.90;;;;;;5072294;28;20482;-73
2021/07/13 12:19:29;;;;;;;58.20;2.50;;;17.60;70.70;;;;;;5053464;28;20569;-73
2021/07/13 12:21:58;;;;;;;58.00;2.50;;;17.70;73.20;;;;;;5071799;28;20537;-74
2021/07/13 12:24:33;;;;;;;57.97;2.60;;;17.80;72.30;;;;;;5071847;28;20494;-73
2021/07/13 12:27:02;;;;;;;57.97;2.50;;;17.80;64.10;;;;;;5071992;28;20521;-74
2021/07/13 12:29:39;;;;;;;58.10;2.70;;;17.80;62.90;;;;;;5072092;28;20486;-73
2021/07/13 12:32:09;;;;;;;58.10;2.60;;;17.70;60.40;;;;;;5071785;28;20823;-74
2021/07/13 12:34:41;;;;;;;58.20;2.60;;;17.70;58.80;;;;;;5071632;28;21036;-74
2021/07/13 12:37:14;;;;;;;58.10;2.63;;;17.70;58.50;;;;;;5072019;28;20458;-74
2021/07/13 12:39:44;;;;;;;58.20;2.80;;;17.80;61.30;;;;;;5071988;28;20974;-73
2021/07/13 12:42:16;;;;;;;57.90;2.70;;;17.90;62.30;;;;;;5071604;28;20486;-73
2021/07/13 12:44:48;;;;;;;58.20;2.60;;;18.00;61.00;;;;;;5071823;28;20592;-73
2021/07/13 12:47:32;;;;;;;58.10;2.50;;;18.00;53.10;;;;;;5071746;28;20537;-74
2021/07/13 12:50:18;;;;;;;58.20;2.30;;;18.00;52.30;;;;;;5055949;28;20531;-74